sensor_id;sensor_type;location;lat;lon;timestamp;temperature;humidity
18141;DHT22;9196;49.194;12.526;2023-08-06T00:00:31;15.90;99.90
18141;DHT22;9196;49.194;12.526;2023-08-06T00:02:58;16.00;99.90
18141;DHT22;9196;49.194;12.526;2023-08-06T00:05:25;15.90;99.90
18141;DHT22;9196;49.194;12.526;2023-08-06T00:07:51;15.90;99.90
18141;DHT22;9196;49.194;12.526;2023-08-06T00:10:20;15.80;99.90
18141;DHT22;9196;49.194;12.526;2023-08-06T00:12:46;15.90;99.90
18141;DHT22;9196;49.194;12.526;2023-08-06T00:15:14;15.80;99.90
18141;DHT22;9196;49.194;12.526;2023-08-06T00:17:40;15.90;99.90
18141;DHT22;9196;49.194;12.526;2023-08-06T00:20:08;15.80;99.90
18141;DHT22;9196;49.194;12.526;2023-08-06T00:22:36;15.90;99.90
18141;DHT22;9196;49.194;12.526;2023-08-06T00:25:04;15.90;99.90
18141;DHT22;9196;49.194;12.526;2023-08-06T00:27:32;15.90;99.90
18141;DHT22;9196;49.194;12.526;2023-08-06T00:29:59;15.90;99.90
18141;DHT22;9196;49.194;12.526;2023-08-06T00:32:26;15.80;99.90
18141;DHT22;9196;49.194;12.526;2023-08-06T00:34:53;15.90;99.90
18141;DHT22;9196;49.194;12.526;2023-08-06T00:37:20;15.80;99.90
18141;DHT22;9196;49.194;12.526;2023-08-06T00:39:47;15.70;99.90
18141;DHT22;9196;49.194;12.526;2023-08-06T00:42:13;15.70;99.90
18141;DHT22;9196;49.194;12.526;2023-08-06T00:44:43;15.60;99.90
18141;DHT22;9196;49.194;12.526;2023-08-06T00:47:09;15.60;99.90
18141;DHT22;9196;49.194;12.526;2023-08-06T00:49:37;15.60;99.90
18141;DHT22;9196;49.194;12.526;2023-08-06T00:52:04;15.60;99.90
18141;DHT22;9196;49.194;12.526;2023-08-06T00:54:32;15.60;99.90
18141;DHT22;9196;49.194;12.526;2023-08-06T00:56:59;15.60;99.90
18141;DHT22;9196;49.194;12.526;2023-08-06T00:59:27;15.60;99.90
18141;DHT22;9196;49.194;12.526;2023-08-06T01:01:56;15.60;99.90
18141;DHT22;9196;49.194;12.526;2023-08-06T01:04:23;15.70;99.90
18141;DHT22;9196;49.194;12.526;2023-08-06T01:07:01;15.80;99.90
18141;DHT22;9196;49.194;12.526;2023-08-06T01:09:35;15.80;99.90
18141;DHT22;9196;49.194;12.526;2023-08-06T01:12:11;15.80;99.90
18141;DHT22;9196;49.194;12.526;2023-08-06T01:14:47;15.90;99.90
18141;DHT22;9196;49.194;12.526;2023-08-06T01:17:20;15.90;99.90
18141;DHT22;9196;49.194;12.526;2023-08-06T01:19:47;15.90;99.90
18141;DHT22;9196;49.194;12.526;2023-08-06T01:22:15;15.90;99.90
18141;DHT22;9196;49.194;12.526;2023-08-06T01:24:44;15.90;99.90
18141;DHT22;9196;49.194;12.526;2023-08-06T01:27:17;15.90;99.90
18141;DHT22;9196;49.194;12.526;2023-08-06T01:29:51;15.90;99.90
18141;DHT22;9196;49.194;12.526;2023-08-06T01:32:23;15.90;99.90
18141;DHT22;9196;49.194;12.526;2023-08-06T01:34:51;15.90;99.90
18141;DHT22;9196;49.194;12.526;2023-08-06T01:37:20;15.90;99.90
18141;DHT22;9196;49.194;12.526;2023-08-06T01:39:47;15.90;99.90
18141;DHT22;9196;49.194;12.526;2023-08-06T01:42:14;15.90;99.90
18141;DHT22;9196;49.194;12.526;2023-08-06T01:44:41;15.90;99.90
18141;DHT22;9196;49.194;12.526;2023-08-06T01:47:07;16.00;99.90
18141;DHT22;9196;49.194;12.526;2023-08-06T01:49:34;15.90;99.90
18141;DHT22;9196;49.194;12.526;2023-08-06T01:52:01;16.00;99.90
18141;DHT22;9196;49.194;12.526;2023-08-06T01:54:29;16.00;99.90
18141;DHT22;9196;49.194;12.526;2023-08-06T01:56:56;15.90;99.90
18141;DHT22;9196;49.194;12.526;2023-08-06T01:59:24;15.80;99.90
18141;DHT22;9196;49.194;12.526;2023-08-06T02:01:50;15.90;99.90
18141;DHT22;9196;49.194;12.526;2023-08-06T02:04:17;15.80;99.90
18141;DHT22;9196;49.194;12.526;2023-08-06T02:06:44;15.80;99.90
18141;DHT22;9196;49.194;12.526;2023-08-06T02:09:11;15.70;99.90
18141;DHT22;9196;49.194;12.526;2023-08-06T02:11:39;15.60;99.90
18141;DHT22;9196;49.194;12.526;2023-08-06T02:14:06;15.60;99.90
18141;DHT22;9196;49.194;12.526;2023-08-06T02:16:32;15.60;99.90
18141;DHT22;9196;49.194;12.526;2023-08-06T02:19:00;15.70;99.90
18141;DHT22;9196;49.194;12.526;2023-08-06T02:21:26;15.70;99.90
18141;DHT22;9196;49.194;12.526;2023-08-06T02:23:53;15.70;99.90
18141;DHT22;9196;49.194;12.526;2023-08-06T02:26:20;15.60;99.90
18141;DHT22;9196;49.194;12.526;2023-08-06T02:28:48;15.70;99.90
18141;DHT22;9196;49.194;12.526;2023-08-06T02:31:15;15.60;99.90
18141;DHT22;9196;49.194;12.526;2023-08-06T02:33:42;15.60;99.90
18141;DHT22;9196;49.194;12.526;2023-08-06T02:36:09;15.60;99.90
18141;DHT22;9196;49.194;12.526;2023-08-06T02:38:37;15.60;99.90
18141;DHT22;9196;49.194;12.526;2023-08-06T02:41:03;15.60;99.90
18141;DHT22;9196;49.194;12.526;2023-08-06T02:43:30;15.60;99.90
18141;DHT22;9196;49.194;12.526;2023-08-06T02:45:59;15.60;99.90
18141;DHT22;9196;49.194;12.526;2023-08-06T02:48:26;15.60;99.90
18141;DHT22;9196;49.194;12.526;2023-08-06T02:50:56;15.70;99.90
18141;DHT22;9196;49.194;12.526;2023-08-06T02:53:23;15.70;99.90
18141;DHT22;9196;49.194;12.526;2023-08-06T02:55:50;15.70;99.90
18141;DHT22;9196;49.194;12.526;2023-08-06T02:58:17;15.70;99.90
18141;DHT22;9196;49.194;12.526;2023-08-06T03:01:00;15.60;99.90
18141;DHT22;9196;49.194;12.526;2023-08-06T03:03:28;15.60;99.90
18141;DHT22;9196;49.194;12.526;2023-08-06T03:05:55;15.50;99.90
18141;DHT22;9196;49.194;12.526;2023-08-06T03:08:22;15.50;99.90
18141;DHT22;9196;49.194;12.526;2023-08-06T03:10:49;15.50;99.90
18141;DHT22;9196;49.194;12.526;2023-08-06T03:13:16;15.50;99.90
18141;DHT22;9196;49.194;12.526;2023-08-06T03:15:43;15.40;99.90
18141;DHT22;9196;49.194;12.526;2023-08-06T03:18:19;15.40;99.90
18141;DHT22;9196;49.194;12.526;2023-08-06T03:20:45;15.40;99.90
18141;DHT22;9196;49.194;12.526;2023-08-06T03:23:12;15.30;99.90
18141;DHT22;9196;49.194;12.526;2023-08-06T03:25:39;15.30;99.90
18141;DHT22;9196;49.194;12.526;2023-08-06T03:28:06;15.40;99.90
18141;DHT22;9196;49.194;12.526;2023-08-06T03:30:33;15.40;99.90
18141;DHT22;9196;49.194;12.526;2023-08-06T03:32:59;15.40;99.90
18141;DHT22;9196;49.194;12.526;2023-08-06T03:35:28;15.40;99.90
18141;DHT22;9196;49.194;12.526;2023-08-06T03:37:54;15.30;99.90
18141;DHT22;9196;49.194;12.526;2023-08-06T03:40:21;15.30;99.90
18141;DHT22;9196;49.194;12.526;2023-08-06T03:42:48;15.30;99.90
18141;DHT22;9196;49.194;12.526;2023-08-06T03:45:15;15.30;99.90
18141;DHT22;9196;49.194;12.526;2023-08-06T03:47:42;15.30;99.90
18141;DHT22;9196;49.194;12.526;2023-08-06T03:50:09;15.40;99.90
18141;DHT22;9196;49.194;12.526;2023-08-06T03:52:37;15.40;99.90
18141;DHT22;9196;49.194;12.526;2023-08-06T03:55:04;15.30;99.90
18141;DHT22;9196;49.194;12.526;2023-08-06T03:57:31;15.40;99.90
18141;DHT22;9196;49.194;12.526;2023-08-06T03:59:58;15.40;99.90
18141;DHT22;9196;49.194;12.526;2023-08-06T04:02:24;15.50;99.90
18141;DHT22;9196;49.194;12.526;2023-08-06T04:04:51;15.50;99.90
18141;DHT22;9196;49.194;12.526;2023-08-06T04:07:19;15.40;99.90
18141;DHT22;9196;49.194;12.526;2023-08-06T04:09:57;15.20;99.90
18141;DHT22;9196;49.194;12.526;2023-08-06T04:12:24;15.00;99.90
18141;DHT22;9196;49.194;12.526;2023-08-06T04:14:51;14.90;99.90
18141;DHT22;9196;49.194;12.526;2023-08-06T04:17:18;14.80;99.90
18141;DHT22;9196;49.194;12.526;2023-08-06T04:19:47;14.70;99.90
18141;DHT22;9196;49.194;12.526;2023-08-06T04:22:14;14.70;99.90
18141;DHT22;9196;49.194;12.526;2023-08-06T04:24:41;14.80;99.90
18141;DHT22;9196;49.194;12.526;2023-08-06T04:27:10;14.80;99.90
18141;DHT22;9196;49.194;12.526;2023-08-06T04:29:37;14.90;99.90
18141;DHT22;9196;49.194;12.526;2023-08-06T04:32:07;14.90;99.90
18141;DHT22;9196;49.194;12.526;2023-08-06T04:34:34;14.70;99.90
18141;DHT22;9196;49.194;12.526;2023-08-06T04:37:01;14.80;99.90
18141;DHT22;9196;49.194;12.526;2023-08-06T04:39:28;14.90;99.90
18141;DHT22;9196;49.194;12.526;2023-08-06T04:41:55;14.80;99.90
18141;DHT22;9196;49.194;12.526;2023-08-06T04:44:24;15.00;99.90
18141;DHT22;9196;49.194;12.526;2023-08-06T04:46:51;15.00;99.90
18141;DHT22;9196;49.194;12.526;2023-08-06T04:49:17;15.20;99.90
18141;DHT22;9196;49.194;12.526;2023-08-06T04:51:44;15.10;99.90
18141;DHT22;9196;49.194;12.526;2023-08-06T04:54:11;15.10;99.90
18141;DHT22;9196;49.194;12.526;2023-08-06T04:56:38;15.10;99.90
18141;DHT22;9196;49.194;12.526;2023-08-06T04:59:05;15.10;99.90
18141;DHT22;9196;49.194;12.526;2023-08-06T05:01:33;15.10;99.90
18141;DHT22;9196;49.194;12.526;2023-08-06T05:04:00;15.00;99.90
18141;DHT22;9196;49.194;12.526;2023-08-06T05:06:27;15.10;99.90
18141;DHT22;9196;49.194;12.526;2023-08-06T05:08:54;15.10;99.90
18141;DHT22;9196;49.194;12.526;2023-08-06T05:11:20;15.10;99.90
18141;DHT22;9196;49.194;12.526;2023-08-06T05:13:47;15.20;99.90
18141;DHT22;9196;49.194;12.526;2023-08-06T05:16:14;15.20;99.90
18141;DHT22;9196;49.194;12.526;2023-08-06T05:18:42;15.30;99.90
18141;DHT22;9196;49.194;12.526;2023-08-06T05:21:09;15.30;99.90
18141;DHT22;9196;49.194;12.526;2023-08-06T05:23:35;15.30;99.90
18141;DHT22;9196;49.194;12.526;2023-08-06T05:26:02;15.40;99.90
18141;DHT22;9196;49.194;12.526;2023-08-06T05:28:29;15.50;99.90
18141;DHT22;9196;49.194;12.526;2023-08-06T05:30:56;15.40;99.90
18141;DHT22;9196;49.194;12.526;2023-08-06T05:33:22;15.50;99.90
18141;DHT22;9196;49.194;12.526;2023-08-06T05:35:51;15.60;99.90
18141;DHT22;9196;49.194;12.526;2023-08-06T05:38:17;15.40;99.90
18141;DHT22;9196;49.194;12.526;2023-08-06T05:40:44;15.60;99.90
18141;DHT22;9196;49.194;12.526;2023-08-06T05:43:11;15.70;99.90
18141;DHT22;9196;49.194;12.526;2023-08-06T05:45:38;15.80;99.90
18141;DHT22;9196;49.194;12.526;2023-08-06T05:48:04;15.80;99.90
18141;DHT22;9196;49.194;12.526;2023-08-06T05:50:31;15.70;99.90
18141;DHT22;9196;49.194;12.526;2023-08-06T05:52:59;15.60;99.90
18141;DHT22;9196;49.194;12.526;2023-08-06T05:55:26;15.70;99.90
18141;DHT22;9196;49.194;12.526;2023-08-06T05:57:53;15.90;99.90
18141;DHT22;9196;49.194;12.526;2023-08-06T06:00:21;15.90;99.90
18141;DHT22;9196;49.194;12.526;2023-08-06T06:02:48;16.00;99.90
18141;DHT22;9196;49.194;12.526;2023-08-06T06:05:15;15.80;99.90
18141;DHT22;9196;49.194;12.526;2023-08-06T06:07:41;15.80;99.90
18141;DHT22;9196;49.194;12.526;2023-08-06T06:10:10;15.70;99.90
18141;DHT22;9196;49.194;12.526;2023-08-06T06:12:38;15.50;99.90
18141;DHT22;9196;49.194;12.526;2023-08-06T06:15:05;15.50;99.90
18141;DHT22;9196;49.194;12.526;2023-08-06T06:17:32;15.60;99.90
18141;DHT22;9196;49.194;12.526;2023-08-06T06:19:59;15.50;99.90
18141;DHT22;9196;49.194;12.526;2023-08-06T06:22:26;15.60;99.90
18141;DHT22;9196;49.194;12.526;2023-08-06T06:24:53;15.60;99.90
18141;DHT22;9196;49.194;12.526;2023-08-06T06:27:21;15.60;99.90
18141;DHT22;9196;49.194;12.526;2023-08-06T06:29:48;15.70;99.90
18141;DHT22;9196;49.194;12.526;2023-08-06T06:32:15;15.80;99.90
18141;DHT22;9196;49.194;12.526;2023-08-06T06:34:41;15.90;99.90
18141;DHT22;9196;49.194;12.526;2023-08-06T06:37:08;15.90;99.90
18141;DHT22;9196;49.194;12.526;2023-08-06T06:39:35;15.90;99.90
18141;DHT22;9196;49.194;12.526;2023-08-06T06:42:02;15.90;99.90
18141;DHT22;9196;49.194;12.526;2023-08-06T06:44:30;15.90;99.90
18141;DHT22;9196;49.194;12.526;2023-08-06T06:46:57;15.80;99.90
18141;DHT22;9196;49.194;12.526;2023-08-06T06:49:24;15.90;99.90
18141;DHT22;9196;49.194;12.526;2023-08-06T06:51:51;15.80;99.90
18141;DHT22;9196;49.194;12.526;2023-08-06T06:54:17;15.80;99.90
18141;DHT22;9196;49.194;12.526;2023-08-06T06:56:44;15.80;99.90
18141;DHT22;9196;49.194;12.526;2023-08-06T06:59:11;15.80;99.90
18141;DHT22;9196;49.194;12.526;2023-08-06T07:01:39;15.90;99.90
18141;DHT22;9196;49.194;12.526;2023-08-06T07:04:06;16.00;99.90
18141;DHT22;9196;49.194;12.526;2023-08-06T07:06:33;16.20;99.90
18141;DHT22;9196;49.194;12.526;2023-08-06T07:08:59;16.20;99.90
18141;DHT22;9196;49.194;12.526;2023-08-06T07:11:26;16.20;99.90
18141;DHT22;9196;49.194;12.526;2023-08-06T07:13:56;16.30;99.90
18141;DHT22;9196;49.194;12.526;2023-08-06T07:16:24;16.40;99.90
18141;DHT22;9196;49.194;12.526;2023-08-06T07:18:53;16.40;99.90
18141;DHT22;9196;49.194;12.526;2023-08-06T07:21:20;16.50;99.90
18141;DHT22;9196;49.194;12.526;2023-08-06T07:23:47;16.50;99.90
18141;DHT22;9196;49.194;12.526;2023-08-06T07:26:15;16.50;99.90
18141;DHT22;9196;49.194;12.526;2023-08-06T07:28:42;16.60;99.90
18141;DHT22;9196;49.194;12.526;2023-08-06T07:31:08;16.40;99.90
18141;DHT22;9196;49.194;12.526;2023-08-06T07:33:35;16.40;99.90
18141;DHT22;9196;49.194;12.526;2023-08-06T07:36:09;16.40;99.90
18141;DHT22;9196;49.194;12.526;2023-08-06T07:38:37;16.40;99.90
18141;DHT22;9196;49.194;12.526;2023-08-06T07:41:04;16.40;99.90
18141;DHT22;9196;49.194;12.526;2023-08-06T07:43:30;16.40;99.90
18141;DHT22;9196;49.194;12.526;2023-08-06T07:45:58;16.40;99.90
18141;DHT22;9196;49.194;12.526;2023-08-06T07:48:25;16.50;99.90
18141;DHT22;9196;49.194;12.526;2023-08-06T07:50:52;16.30;99.90
18141;DHT22;9196;49.194;12.526;2023-08-06T07:53:20;16.30;99.90
18141;DHT22;9196;49.194;12.526;2023-08-06T07:55:49;16.30;99.90
18141;DHT22;9196;49.194;12.526;2023-08-06T07:58:16;16.50;99.90
18141;DHT22;9196;49.194;12.526;2023-08-06T08:00:43;16.50;99.90
18141;DHT22;9196;49.194;12.526;2023-08-06T08:03:11;16.70;99.90
18141;DHT22;9196;49.194;12.526;2023-08-06T08:05:37;16.90;99.90
18141;DHT22;9196;49.194;12.526;2023-08-06T08:08:04;17.00;99.90
18141;DHT22;9196;49.194;12.526;2023-08-06T08:10:32;17.10;99.90
18141;DHT22;9196;49.194;12.526;2023-08-06T08:13:00;17.10;99.90
18141;DHT22;9196;49.194;12.526;2023-08-06T08:15:28;17.00;99.90
18141;DHT22;9196;49.194;12.526;2023-08-06T08:17:55;17.00;99.90
18141;DHT22;9196;49.194;12.526;2023-08-06T08:20:22;17.00;99.90
18141;DHT22;9196;49.194;12.526;2023-08-06T08:22:49;16.90;99.90
18141;DHT22;9196;49.194;12.526;2023-08-06T08:25:16;16.80;99.90
18141;DHT22;9196;49.194;12.526;2023-08-06T08:27:44;16.90;99.90
18141;DHT22;9196;49.194;12.526;2023-08-06T08:30:11;16.90;99.90
18141;DHT22;9196;49.194;12.526;2023-08-06T08:32:38;16.90;99.90
18141;DHT22;9196;49.194;12.526;2023-08-06T08:35:05;16.90;99.90
18141;DHT22;9196;49.194;12.526;2023-08-06T08:37:32;17.00;99.90
18141;DHT22;9196;49.194;12.526;2023-08-06T08:39:58;17.10;99.90
18141;DHT22;9196;49.194;12.526;2023-08-06T08:42:26;17.30;99.90
18141;DHT22;9196;49.194;12.526;2023-08-06T08:44:54;17.50;99.90
18141;DHT22;9196;49.194;12.526;2023-08-06T08:47:22;17.80;99.90
18141;DHT22;9196;49.194;12.526;2023-08-06T08:49:52;18.00;99.90
18141;DHT22;9196;49.194;12.526;2023-08-06T08:52:21;18.00;99.90
18141;DHT22;9196;49.194;12.526;2023-08-06T08:54:49;18.10;99.90
18141;DHT22;9196;49.194;12.526;2023-08-06T08:57:18;18.30;99.90
18141;DHT22;9196;49.194;12.526;2023-08-06T08:59:45;18.40;99.90
18141;DHT22;9196;49.194;12.526;2023-08-06T09:02:14;18.60;99.90
18141;DHT22;9196;49.194;12.526;2023-08-06T09:04:42;18.60;99.90
18141;DHT22;9196;49.194;12.526;2023-08-06T09:07:11;18.60;99.90
18141;DHT22;9196;49.194;12.526;2023-08-06T09:09:40;18.60;99.90
18141;DHT22;9196;49.194;12.526;2023-08-06T09:12:12;18.60;99.90
18141;DHT22;9196;49.194;12.526;2023-08-06T09:14:40;18.40;99.90
18141;DHT22;9196;49.194;12.526;2023-08-06T09:17:08;18.40;99.90
18141;DHT22;9196;49.194;12.526;2023-08-06T09:19:37;18.30;99.90
18141;DHT22;9196;49.194;12.526;2023-08-06T09:22:04;18.40;99.90
18141;DHT22;9196;49.194;12.526;2023-08-06T09:24:38;18.60;99.90
18141;DHT22;9196;49.194;12.526;2023-08-06T09:27:11;18.90;99.90
18141;DHT22;9196;49.194;12.526;2023-08-06T09:29:40;18.80;99.90
18141;DHT22;9196;49.194;12.526;2023-08-06T09:32:07;18.80;99.90
18141;DHT22;9196;49.194;12.526;2023-08-06T09:34:34;18.70;99.90
18141;DHT22;9196;49.194;12.526;2023-08-06T09:37:03;18.40;99.90
18141;DHT22;9196;49.194;12.526;2023-08-06T09:39:30;18.10;99.90
18141;DHT22;9196;49.194;12.526;2023-08-06T09:41:58;17.80;99.90
18141;DHT22;9196;49.194;12.526;2023-08-06T09:44:26;17.90;99.90
18141;DHT22;9196;49.194;12.526;2023-08-06T09:46:54;18.30;99.90
18141;DHT22;9196;49.194;12.526;2023-08-06T09:49:25;18.40;99.90
18141;DHT22;9196;49.194;12.526;2023-08-06T09:51:52;18.60;99.90
18141;DHT22;9196;49.194;12.526;2023-08-06T09:54:23;18.70;99.90
18141;DHT22;9196;49.194;12.526;2023-08-06T09:56:50;18.80;99.90
18141;DHT22;9196;49.194;12.526;2023-08-06T09:59:17;18.90;99.90
18141;DHT22;9196;49.194;12.526;2023-08-06T10:01:45;18.90;99.90
18141;DHT22;9196;49.194;12.526;2023-08-06T10:04:14;18.90;99.90
18141;DHT22;9196;49.194;12.526;2023-08-06T10:06:46;19.00;99.90
18141;DHT22;9196;49.194;12.526;2023-08-06T10:09:14;18.80;99.90
18141;DHT22;9196;49.194;12.526;2023-08-06T10:11:42;19.00;99.90
18141;DHT22;9196;49.194;12.526;2023-08-06T10:14:15;18.70;99.90
18141;DHT22;9196;49.194;12.526;2023-08-06T10:16:43;18.60;99.90
18141;DHT22;9196;49.194;12.526;2023-08-06T10:19:12;18.40;99.90
18141;DHT22;9196;49.194;12.526;2023-08-06T10:21:39;18.10;99.90
18141;DHT22;9196;49.194;12.526;2023-08-06T10:24:07;18.10;99.90
18141;DHT22;9196;49.194;12.526;2023-08-06T10:26:36;18.30;99.90
18141;DHT22;9196;49.194;12.526;2023-08-06T10:29:38;18.50;99.90
18141;DHT22;9196;49.194;12.526;2023-08-06T10:32:05;18.60;99.90
18141;DHT22;9196;49.194;12.526;2023-08-06T10:34:55;18.60;99.90
18141;DHT22;9196;49.194;12.526;2023-08-06T10:37:23;18.50;99.90
18141;DHT22;9196;49.194;12.526;2023-08-06T10:39:50;18.40;99.90
18141;DHT22;9196;49.194;12.526;2023-08-06T10:42:21;18.10;99.90
18141;DHT22;9196;49.194;12.526;2023-08-06T10:45:15;18.00;99.90
18141;DHT22;9196;49.194;12.526;2023-08-06T10:47:43;17.90;99.90
18141;DHT22;9196;49.194;12.526;2023-08-06T10:50:12;17.90;99.90
18141;DHT22;9196;49.194;12.526;2023-08-06T10:52:39;18.10;99.90
18141;DHT22;9196;49.194;12.526;2023-08-06T10:55:07;18.00;99.90
18141;DHT22;9196;49.194;12.526;2023-08-06T10:57:34;17.80;99.90
18141;DHT22;9196;49.194;12.526;2023-08-06T11:00:01;17.70;99.90
18141;DHT22;9196;49.194;12.526;2023-08-06T11:02:33;17.70;99.90
18141;DHT22;9196;49.194;12.526;2023-08-06T11:05:05;17.70;99.90
18141;DHT22;9196;49.194;12.526;2023-08-06T11:07:32;17.80;99.90
18141;DHT22;9196;49.194;12.526;2023-08-06T11:10:02;17.50;99.90
18141;DHT22;9196;49.194;12.526;2023-08-06T11:12:29;17.60;99.90
18141;DHT22;9196;49.194;12.526;2023-08-06T11:14:56;17.70;99.90
18141;DHT22;9196;49.194;12.526;2023-08-06T11:17:23;17.70;99.90
18141;DHT22;9196;49.194;12.526;2023-08-06T11:19:52;17.60;99.90
18141;DHT22;9196;49.194;12.526;2023-08-06T11:22:21;17.70;99.90
18141;DHT22;9196;49.194;12.526;2023-08-06T11:24:48;17.40;99.90
18141;DHT22;9196;49.194;12.526;2023-08-06T11:27:15;17.70;99.90
18141;DHT22;9196;49.194;12.526;2023-08-06T11:29:43;18.00;99.90
18141;DHT22;9196;49.194;12.526;2023-08-06T11:32:11;18.40;99.90
18141;DHT22;9196;49.194;12.526;2023-08-06T11:34:39;18.60;99.90
18141;DHT22;9196;49.194;12.526;2023-08-06T11:37:07;18.90;99.90
18141;DHT22;9196;49.194;12.526;2023-08-06T11:39:36;19.00;99.90
18141;DHT22;9196;49.194;12.526;2023-08-06T11:42:03;19.00;99.90
18141;DHT22;9196;49.194;12.526;2023-08-06T11:44:31;18.80;99.90
18141;DHT22;9196;49.194;12.526;2023-08-06T11:46:59;18.40;99.90
18141;DHT22;9196;49.194;12.526;2023-08-06T11:49:40;18.30;99.90
18141;DHT22;9196;49.194;12.526;2023-08-06T11:52:18;18.60;99.90
18141;DHT22;9196;49.194;12.526;2023-08-06T11:54:46;18.80;99.90
18141;DHT22;9196;49.194;12.526;2023-08-06T11:57:13;18.50;99.90
18141;DHT22;9196;49.194;12.526;2023-08-06T11:59:41;18.40;99.90
18141;DHT22;9196;49.194;12.526;2023-08-06T12:02:09;18.80;99.90
18141;DHT22;9196;49.194;12.526;2023-08-06T12:05:09;19.20;99.90
18141;DHT22;9196;49.194;12.526;2023-08-06T12:07:38;19.20;99.90
18141;DHT22;9196;49.194;12.526;2023-08-06T12:10:06;19.20;99.90
18141;DHT22;9196;49.194;12.526;2023-08-06T12:12:33;19.40;99.90
18141;DHT22;9196;49.194;12.526;2023-08-06T12:15:00;19.40;99.90
18141;DHT22;9196;49.194;12.526;2023-08-06T12:17:27;19.60;99.90
18141;DHT22;9196;49.194;12.526;2023-08-06T12:19:54;19.50;99.90
18141;DHT22;9196;49.194;12.526;2023-08-06T12:22:21;19.60;99.90
18141;DHT22;9196;49.194;12.526;2023-08-06T12:24:49;20.00;99.90
18141;DHT22;9196;49.194;12.526;2023-08-06T12:27:16;19.90;99.90
18141;DHT22;9196;49.194;12.526;2023-08-06T12:29:44;19.90;99.90
18141;DHT22;9196;49.194;12.526;2023-08-06T12:32:11;19.70;99.90
18141;DHT22;9196;49.194;12.526;2023-08-06T12:34:39;19.40;99.90
18141;DHT22;9196;49.194;12.526;2023-08-06T12:37:06;19.40;99.90
18141;DHT22;9196;49.194;12.526;2023-08-06T12:39:33;19.90;99.90
18141;DHT22;9196;49.194;12.526;2023-08-06T12:42:04;20.20;99.90
18141;DHT22;9196;49.194;12.526;2023-08-06T12:44:31;20.20;99.90
18141;DHT22;9196;49.194;12.526;2023-08-06T12:46:58;20.00;99.90
18141;DHT22;9196;49.194;12.526;2023-08-06T12:49:25;19.90;99.90
18141;DHT22;9196;49.194;12.526;2023-08-06T12:51:54;19.80;99.90
18141;DHT22;9196;49.194;12.526;2023-08-06T12:54:22;19.70;99.90
18141;DHT22;9196;49.194;12.526;2023-08-06T12:56:49;20.10;99.90
18141;DHT22;9196;49.194;12.526;2023-08-06T12:59:18;20.30;99.90
18141;DHT22;9196;49.194;12.526;2023-08-06T13:01:45;20.50;99.90
18141;DHT22;9196;49.194;12.526;2023-08-06T13:04:12;19.90;99.90
18141;DHT22;9196;49.194;12.526;2023-08-06T13:06:39;19.30;99.90
18141;DHT22;9196;49.194;12.526;2023-08-06T13:09:06;18.80;99.90
18141;DHT22;9196;49.194;12.526;2023-08-06T13:11:33;18.70;99.90
18141;DHT22;9196;49.194;12.526;2023-08-06T13:14:05;18.70;99.90
18141;DHT22;9196;49.194;12.526;2023-08-06T13:16:33;18.50;99.90
18141;DHT22;9196;49.194;12.526;2023-08-06T13:19:00;18.40;99.90
18141;DHT22;9196;49.194;12.526;2023-08-06T13:21:32;18.70;99.90
18141;DHT22;9196;49.194;12.526;2023-08-06T13:24:00;18.90;99.90
18141;DHT22;9196;49.194;12.526;2023-08-06T13:26:27;19.10;99.90
18141;DHT22;9196;49.194;12.526;2023-08-06T13:28:54;19.00;99.90
18141;DHT22;9196;49.194;12.526;2023-08-06T13:31:21;18.30;99.90
18141;DHT22;9196;49.194;12.526;2023-08-06T13:33:50;17.80;99.90
18141;DHT22;9196;49.194;12.526;2023-08-06T13:36:16;17.60;99.90
18141;DHT22;9196;49.194;12.526;2023-08-06T13:38:43;17.20;99.90
18141;DHT22;9196;49.194;12.526;2023-08-06T13:41:10;17.00;99.90
18141;DHT22;9196;49.194;12.526;2023-08-06T13:43:37;16.90;99.90
18141;DHT22;9196;49.194;12.526;2023-08-06T13:46:04;17.10;99.90
18141;DHT22;9196;49.194;12.526;2023-08-06T13:48:31;17.40;99.90
18141;DHT22;9196;49.194;12.526;2023-08-06T13:50:59;17.90;99.90
18141;DHT22;9196;49.194;12.526;2023-08-06T13:53:26;18.50;99.90
18141;DHT22;9196;49.194;12.526;2023-08-06T13:55:55;18.80;99.90
18141;DHT22;9196;49.194;12.526;2023-08-06T13:58:22;19.10;99.90
18141;DHT22;9196;49.194;12.526;2023-08-06T14:00:51;19.10;99.90
18141;DHT22;9196;49.194;12.526;2023-08-06T14:03:18;18.50;99.90
18141;DHT22;9196;49.194;12.526;2023-08-06T14:05:45;18.40;99.90
18141;DHT22;9196;49.194;12.526;2023-08-06T14:08:13;18.30;99.90
18141;DHT22;9196;49.194;12.526;2023-08-06T14:10:40;18.20;99.90
18141;DHT22;9196;49.194;12.526;2023-08-06T14:13:07;17.80;99.90
18141;DHT22;9196;49.194;12.526;2023-08-06T14:15:33;17.80;99.90
18141;DHT22;9196;49.194;12.526;2023-08-06T14:18:00;17.70;99.90
18141;DHT22;9196;49.194;12.526;2023-08-06T14:20:28;17.60;99.90
18141;DHT22;9196;49.194;12.526;2023-08-06T14:22:54;17.50;99.90
18141;DHT22;9196;49.194;12.526;2023-08-06T14:25:23;17.50;99.90
18141;DHT22;9196;49.194;12.526;2023-08-06T14:27:49;17.40;99.90
18141;DHT22;9196;49.194;12.526;2023-08-06T14:30:16;17.50;99.90
18141;DHT22;9196;49.194;12.526;2023-08-06T14:32:43;17.30;99.90
18141;DHT22;9196;49.194;12.526;2023-08-06T14:35:10;17.30;99.90
18141;DHT22;9196;49.194;12.526;2023-08-06T14:37:37;17.50;99.90
18141;DHT22;9196;49.194;12.526;2023-08-06T14:40:05;17.90;99.90
18141;DHT22;9196;49.194;12.526;2023-08-06T14:42:34;18.30;99.90
18141;DHT22;9196;49.194;12.526;2023-08-06T14:45:00;18.20;99.90
18141;DHT22;9196;49.194;12.526;2023-08-06T14:47:27;18.20;99.90
18141;DHT22;9196;49.194;12.526;2023-08-06T14:49:54;18.30;99.90
18141;DHT22;9196;49.194;12.526;2023-08-06T14:52:21;18.60;99.90
18141;DHT22;9196;49.194;12.526;2023-08-06T14:54:48;18.40;99.90
18141;DHT22;9196;49.194;12.526;2023-08-06T14:57:17;18.70;99.90
18141;DHT22;9196;49.194;12.526;2023-08-06T14:59:45;19.10;99.90
18141;DHT22;9196;49.194;12.526;2023-08-06T15:02:12;19.00;99.90
18141;DHT22;9196;49.194;12.526;2023-08-06T15:04:39;18.70;99.90
18141;DHT22;9196;49.194;12.526;2023-08-06T15:07:06;18.20;99.90
18141;DHT22;9196;49.194;12.526;2023-08-06T15:09:35;18.10;99.90
18141;DHT22;9196;49.194;12.526;2023-08-06T15:12:02;17.50;99.90
18141;DHT22;9196;49.194;12.526;2023-08-06T15:14:28;17.10;99.90
18141;DHT22;9196;49.194;12.526;2023-08-06T15:16:57;17.00;99.90
18141;DHT22;9196;49.194;12.526;2023-08-06T15:19:23;17.00;99.90
18141;DHT22;9196;49.194;12.526;2023-08-06T15:21:50;17.10;99.90
18141;DHT22;9196;49.194;12.526;2023-08-06T15:24:17;17.00;99.90
18141;DHT22;9196;49.194;12.526;2023-08-06T15:26:44;17.10;99.90
18141;DHT22;9196;49.194;12.526;2023-08-06T15:29:11;17.30;99.90
18141;DHT22;9196;49.194;12.526;2023-08-06T15:31:38;17.10;99.90
18141;DHT22;9196;49.194;12.526;2023-08-06T15:34:07;17.10;99.90